Time;durP1;ratioP1;P1;durP2;ratioP2;P2;SDS_P1;SDS_P2;PMS_P1;PMS_P2;Temp;Humidity;BMP_temperature;BMP_pressure;BME280_temperature;BME280_humidity;BME280_pressure;Samples;Min_cycle;Max_cycle;Signal;HPM_P1;HPM_P2
2022/09/10 00:00:23;;;;;;;1.42;0.88;;;;;;;19.97;66.21;96682.47;10536907;28;20055;-51
2022/09/10 00:06:02;;;;;;;0.75;0.75;;;;;;;19.97;66.28;96682.47;10547828;28;20097;-50
2022/09/10 00:11:23;;;;;;;1.02;0.80;;;;;;;19.97;66.28;96666.25;10544815;28;20063;-49
2022/09/10 00:16:43;;;;;;;0.70;0.70;;;;;;;19.99;66.32;96664.78;10544357;28;20109;-49
2022/09/10 00:22:02;;;;;;;0.70;0.60;;;;;;;19.98;66.23;96657.03;10544712;28;20094;-50
2022/09/10 00:27:23;;;;;;;0.80;0.60;;;;;;;19.97;66.31;96660.84;10534912;28;20052;-51
2022/09/10 00:32:42;;;;;;;1.10;0.80;;;;;;;19.97;66.24;96660.84;10543403;28;20100;-51
2022/09/10 00:38:02;;;;;;;0.65;0.60;;;;;;;19.96;66.30;96665.47;10553062;28;20055;-49
2022/09/10 00:43:22;;;;;;;0.70;0.70;;;;;;;19.97;66.40;96667.03;10585883;28;20047;-50
2022/09/10 00:48:42;;;;;;;1.00;0.70;;;;;;;19.97;66.29;96666.25;10565836;28;20060;-49
2022/09/10 00:54:01;;;;;;;0.50;0.50;;;;;;;19.96;66.30;96676.28;10576609;28;20047;-51
2022/09/10 00:59:24;;;;;;;0.75;0.75;;;;;;;19.95;66.26;96680.91;10574720;28;20491;-51
2022/09/10 01:04:44;;;;;;;0.60;0.60;;;;;;;19.95;66.38;96680.91;10556487;28;20445;-50
2022/09/10 01:10:08;;;;;;;2.10;0.70;;;;;;;19.95;66.34;96680.91;10565154;28;20411;-48
2022/09/10 01:15:47;;;;;;;0.57;0.57;;;;;;;19.95;66.37;96680.09;10529790;28;20055;-51
2022/09/10 01:21:12;;;;;;;1.45;0.73;;;;;;;19.94;66.37;96678.50;10577657;28;20074;-50
2022/09/10 01:26:35;;;;;;;0.50;0.50;;;;;;;19.95;66.25;96670.09;10496874;28;20049;-49
2022/09/10 01:32:14;;;;;;;0.63;0.60;;;;;;;19.94;66.36;96673.88;10553736;28;20055;-50
2022/09/10 01:37:38;;;;;;;0.90;0.70;;;;;;;19.95;66.29;96680.09;10535407;28;20097;-48
2022/09/10 01:43:04;;;;;;;0.90;0.60;;;;;;;19.94;66.32;96673.09;10510347;28;20094;-52
2022/09/10 01:48:41;;;;;;;0.63;0.50;;;;;;;19.93;66.31;96661.50;10499706;28;20074;-50
2022/09/10 01:54:13;;;;;;;0.70;0.70;;;;;;;19.93;66.30;96669.63;10543828;28;20047;-51
2022/09/10 02:00:04;;;;;;;0.60;0.60;;;;;;;19.93;66.30;96666.09;10548217;28;20106;-51
2022/09/10 02:05:36;;;;;;;0.50;0.50;;;;;;;19.94;66.32;96657.66;10529305;28;20044;-52
2022/09/10 02:11:04;;;;;;;0.75;0.68;;;;;;;19.92;66.27;96659.91;10511183;28;20043;-48
2022/09/10 02:16:33;;;;;;;0.55;0.55;;;;;;;19.93;66.21;96661.50;10524303;28;20102;-48
2022/09/10 02:21:55;;;;;;;0.85;0.60;;;;;;;19.93;66.36;96658.81;10506357;28;20048;-49
2022/09/10 02:27:14;;;;;;;0.70;0.70;;;;;;;19.90;66.04;96645.94;10542867;28;20420;-50
2022/09/10 02:32:34;;;;;;;0.50;0.50;;;;;;;19.92;66.35;96645.59;10556795;28;20047;-50
2022/09/10 02:37:53;;;;;;;0.60;0.60;;;;;;;19.92;66.31;96643.69;10569779;28;20376;-51
2022/09/10 02:43:12;;;;;;;0.50;0.50;;;;;;;19.92;66.25;96649.09;10576580;28;20054;-51
2022/09/10 02:48:32;;;;;;;0.50;0.50;;;;;;;19.92;66.29;96640.19;10533734;28;20104;-48
2022/09/10 02:53:52;;;;;;;0.82;0.50;;;;;;;19.92;66.24;96637.50;10530342;28;20055;-51
2022/09/10 02:59:13;;;;;;;0.52;0.52;;;;;;;19.91;66.28;96644.78;10522365;28;20048;-50
2022/09/10 03:04:33;;;;;;;0.50;0.50;;;;;;;19.90;66.27;96645.94;10550039;28;20089;-51
2022/09/10 03:09:54;;;;;;;0.90;0.60;;;;;;;19.90;66.32;96645.16;10574141;28;20055;-51
2022/09/10 03:15:14;;;;;;;0.50;0.50;;;;;;;19.90;66.33;96635.13;10566722;28;20486;-51
2022/09/10 03:20:35;;;;;;;0.68;0.57;;;;;;;19.90;66.34;96647.84;10552807;28;20052;-49
2022/09/10 03:25:55;;;;;;;0.55;0.55;;;;;;;19.90;66.27;96643.22;10548661;28;20048;-51
2022/09/10 03:31:18;;;;;;;0.60;0.50;;;;;;;19.90;66.26;96653.25;10535214;28;20093;-50
2022/09/10 03:36:40;;;;;;;0.43;0.43;;;;;;;19.90;66.36;96651.34;10558640;28;20491;-50
2022/09/10 03:42:04;;;;;;;1.15;0.60;;;;;;;19.89;66.26;96651.66;10510723;28;20083;-49
2022/09/10 03:47:24;;;;;;;0.50;0.50;;;;;;;19.90;66.25;96648.63;10531476;28;20051;-50
2022/09/10 03:52:43;;;;;;;0.60;0.60;;;;;;;19.90;66.27;96647.84;10501867;28;20048;-51
2022/09/10 03:58:04;;;;;;;0.73;0.50;;;;;;;19.89;66.23;96652.44;10527192;28;20048;-50
2022/09/10 04:03:24;;;;;;;0.40;0.40;;;;;;;19.88;66.28;96648.19;10522528;28;20051;-48
2022/09/10 04:08:48;;;;;;;0.40;0.40;;;;;;;19.88;66.34;96650.88;10521510;28;20052;-49
2022/09/10 04:14:08;;;;;;;0.50;0.50;;;;;;;19.88;66.30;96641.97;10528434;28;20051;-50
2022/09/10 04:19:31;;;;;;;0.50;0.50;;;;;;;19.87;66.32;96652.00;10558975;28;20051;-52
2022/09/10 04:24:50;;;;;;;0.50;0.50;;;;;;;19.88;66.30;96650.09;10567887;28;20054;-52
2022/09/10 04:30:11;;;;;;;0.50;0.50;;;;;;;19.88;66.18;96650.09;10556128;28;20051;-49
2022/09/10 04:35:31;;;;;;;0.50;0.50;;;;;;;19.87;66.25;96657.41;10557272;28;20403;-49
2022/09/10 04:40:53;;;;;;;0.40;0.40;;;;;;;19.86;66.29;96655.81;10538326;28;20052;-49
2022/09/10 04:46:13;;;;;;;0.40;0.40;;;;;;;19.86;66.26;96647.72;10563273;28;20109;-51
2022/09/10 04:51:35;;;;;;;0.40;0.40;;;;;;;19.86;66.22;96645.00;10514614;28;20454;-51
2022/09/10 04:56:55;;;;;;;0.63;0.50;;;;;;;19.86;66.33;96642.31;10554105;28;20052;-50
2022/09/10 05:02:15;;;;;;;0.35;0.35;;;;;;;19.86;66.38;96645.00;10546264;28;20059;-51
2022/09/10 05:07:35;;;;;;;0.40;0.40;;;;;;;19.84;66.24;96644.56;10554666;28;20495;-50
2022/09/10 05:12:55;;;;;;;0.50;0.50;;;;;;;19.86;66.24;96646.94;10537836;28;20394;-49
2022/09/10 05:18:16;;;;;;;0.50;0.50;;;;;;;19.86;66.35;96657.75;10546675;28;20063;-52
2022/09/10 05:23:35;;;;;;;0.30;0.30;;;;;;;19.85;66.29;96658.84;10563840;28;20063;-51
2022/09/10 05:28:58;;;;;;;0.40;0.40;;;;;;;19.85;66.34;96654.22;10547360;28;20055;-52
2022/09/10 05:34:19;;;;;;;0.50;0.40;;;;;;;19.85;66.23;96651.53;10536433;28;20044;-50
2022/09/10 05:39:38;;;;;;;0.40;0.40;;;;;;;19.85;66.23;96653.44;10538146;28;20086;-52
2022/09/10 05:44:58;;;;;;;0.40;0.40;;;;;;;19.84;66.27;96660.78;10551600;28;20059;-52
2022/09/10 05:50:19;;;;;;;0.30;0.30;;;;;;;19.86;66.28;96666.63;10535669;28;20105;-52
2022/09/10 05:55:38;;;;;;;0.40;0.40;;;;;;;19.85;66.17;96666.97;10533108;28;20044;-48
2022/09/10 06:01:00;;;;;;;0.50;0.50;;;;;;;19.85;66.25;96662.34;10566772;28;20406;-51
2022/09/10 06:06:21;;;;;;;0.50;0.40;;;;;;;19.86;66.46;96665.84;10527336;28;20068;-49
2022/09/10 06:11:48;;;;;;;0.60;0.60;;;;;;;19.85;66.43;96665.03;10533126;28;20417;-50
2022/09/10 06:17:09;;;;;;;0.60;0.57;;;;;;;19.86;66.63;96666.63;10553744;28;20395;-50
2022/09/10 06:22:32;;;;;;;0.50;0.50;;;;;;;19.86;66.50;96669.34;10563461;28;20048;-51
2022/09/10 06:27:52;;;;;;;0.40;0.40;;;;;;;19.86;66.57;96672.03;10578756;28;20089;-49
2022/09/10 06:33:12;;;;;;;0.30;0.30;;;;;;;19.86;66.64;96671.25;10563108;28;20410;-51
2022/09/10 06:38:32;;;;;;;0.38;0.38;;;;;;;19.86;66.72;96672.03;10545119;28;20056;-49
2022/09/10 06:43:53;;;;;;;0.40;0.40;;;;;;;19.86;66.64;96677.44;10540262;28;20048;-48
2022/09/10 06:49:30;;;;;;;0.30;0.30;;;;;;;19.85;66.65;96675.84;10537861;28;20109;-50
2022/09/10 06:54:50;;;;;;;0.50;0.40;;;;;;;19.86;66.57;96676.66;10546914;28;20092;-52
2022/09/10 07:00:22;;;;;;;0.40;0.40;;;;;;;19.85;66.52;96675.84;10536321;28;20052;-50
2022/09/10 07:05:46;;;;;;;0.40;0.40;;;;;;;19.86;66.50;96672.03;10522849;28;20052;-51
2022/09/10 07:11:10;;;;;;;0.38;0.38;;;;;;;19.88;66.54;96680.63;10523013;28;20101;-50
2022/09/10 07:16:30;;;;;;;0.32;0.32;;;;;;;19.86;66.54;96679.38;10537327;28;20491;-48
2022/09/10 07:21:51;;;;;;;0.43;0.43;;;;;;;19.86;66.53;96677.44;10522258;28;20553;-50
2022/09/10 07:27:11;;;;;;;0.40;0.40;;;;;;;19.86;66.51;96677.44;10523533;28;20121;-49
2022/09/10 07:32:34;;;;;;;0.60;0.38;;;;;;;19.86;66.53;96677.44;10504983;28;20071;-50
2022/09/10 07:38:02;;;;;;;0.40;0.40;;;;;;;19.86;66.48;96680.16;10508504;28;20504;-49
2022/09/10 07:43:22;;;;;;;0.40;0.40;;;;;;;19.87;66.44;96673.63;10526747;28;20052;-49
2022/09/10 07:48:45;;;;;;;0.40;0.40;;;;;;;19.88;66.43;96675.22;10531068;28;20056;-48
2022/09/10 07:54:04;;;;;;;0.43;0.43;;;;;;;19.86;66.41;96672.03;10529836;28;20048;-48
2022/09/10 07:59:37;;;;;;;0.30;0.30;;;;;;;19.87;66.47;96684.44;10543511;28;20132;-48
2022/09/10 08:04:57;;;;;;;0.65;0.40;;;;;;;19.86;66.43;96688.28;10544769;28;20048;-46
2022/09/10 08:10:17;;;;;;;1.42;0.70;;;;;;;19.87;66.54;96684.44;10551054;28;20043;-50
2022/09/10 08:15:43;;;;;;;0.30;0.30;;;;;;;19.87;66.48;96684.44;10560105;28;20105;-49
2022/09/10 08:21:04;;;;;;;0.63;0.40;;;;;;;19.88;66.55;96685.25;10518452;28;20052;-50
2022/09/10 08:26:25;;;;;;;0.45;0.40;;;;;;;19.89;66.81;96698.41;10521186;28;20053;-53
2022/09/10 08:31:46;;;;;;;0.50;0.50;;;;;;;19.88;66.71;96679.84;10528038;28;20054;-53
2022/09/10 08:37:13;;;;;;;0.98;0.40;;;;;;;19.88;66.93;96688.72;10529335;28;20056;-52
2022/09/10 08:42:51;;;;;;;1.45;0.30;;;;;;;19.90;67.00;96685.69;10521706;28;20044;-47
2022/09/10 08:48:19;;;;;;;0.75;0.35;;;;;;;19.90;66.99;96683.78;10528045;28;20051;-48
2022/09/10 08:54:00;;;;;;;0.73;0.30;;;;;;;19.90;67.08;96678.38;10499657;28;20439;-52
2022/09/10 08:59:43;;;;;;;0.47;0.40;;;;;;;19.90;67.21;96674.88;10519424;28;20506;-53
2022/09/10 09:05:16;;;;;;;0.40;0.40;;;;;;;19.91;67.08;96679.94;10536199;28;20108;-52
2022/09/10 09:10:43;;;;;;;0.85;0.40;;;;;;;19.91;67.20;96689.97;10566612;28;20063;-53
2022/09/10 09:16:05;;;;;;;0.40;0.38;;;;;;;19.90;67.20;96689.19;10529018;28;20055;-51
2022/09/10 09:21:53;;;;;;;0.30;0.30;;;;;;;19.92;67.20;96697.75;10539487;28;20044;-50
2022/09/10 09:27:17;;;;;;;0.40;0.40;;;;;;;19.91;67.25;96692.69;10547633;28;20116;-53
2022/09/10 09:32:43;;;;;;;1.33;0.30;;;;;;;19.92;67.25;96684.25;10553905;28;20043;-52
2022/09/10 09:38:06;;;;;;;3.95;0.40;;;;;;;19.92;67.25;96681.53;10525360;28;20051;-51
2022/09/10 09:44:01;;;;;;;0.40;0.40;;;;;;;19.93;67.32;96672.31;10554423;28;20067;-54
2022/09/10 09:49:22;;;;;;;0.30;0.30;;;;;;;19.93;67.37;96675.03;10526006;28;20410;-51
2022/09/10 09:54:44;;;;;;;1.35;0.32;;;;;;;19.93;67.30;96671.50;10513359;28;20044;-53
2022/09/10 10:00:34;;;;;;;2.92;0.40;;;;;;;19.94;67.31;96667.69;10544228;28;20044;-53
2022/09/10 10:06:08;;;;;;;0.60;0.40;;;;;;;19.94;67.32;96657.66;10562474;28;20051;-52
2022/09/10 10:11:45;;;;;;;0.70;0.50;;;;;;;19.94;67.30;96646.84;10542107;28;20044;-53
2022/09/10 10:17:40;;;;;;;1.63;0.60;;;;;;;19.91;64.55;96639.38;10562519;28;20047;-50
2022/09/10 10:23:35;;;;;;;0.73;0.60;;;;;;;19.87;63.13;96638.47;10428730;28;20044;-52
2022/09/10 10:29:16;;;;;;;1.00;0.80;;;;;;;19.85;62.00;96648.03;10539561;28;20078;-51
2022/09/10 10:34:52;;;;;;;1.27;0.77;;;;;;;19.82;61.59;96638.69;10566957;28;20100;-51
2022/09/10 10:40:21;;;;;;;2.55;1.00;;;;;;;19.78;61.07;96634.25;10564422;28;20063;-48
2022/09/10 10:45:56;;;;;;;;;;;;;;;19.78;60.45;96636.94;10564921;28;20062;-52
2022/09/10 10:51:45;;;;;;;1.65;1.05;;;;;;;19.79;61.30;96633.94;10521684;28;19920;-51
2022/09/10 10:57:15;;;;;;;1.75;0.90;;;;;;;19.81;60.75;96647.91;10549694;28;20058;-50
2022/09/10 11:03:20;;;;;;;2.58;1.02;;;;;;;19.78;60.08;96626.94;10562845;28;20056;-49
2022/09/10 11:08:45;;;;;;;1.48;0.90;;;;;;;-146.19;100.00;65364.44;10500400;28;20060;-58
2022/09/10 11:14:18;;;;;;;2.33;0.80;;;;;;;19.79;60.24;96628.53;10564351;28;20039;-64
2022/09/10 11:19:51;;;;;;;1.70;0.70;;;;;;;19.80;60.08;96610.38;10537566;28;20056;-60
2022/09/10 11:25:18;;;;;;;0.88;0.70;;;;;;;19.81;59.87;96615.47;10574062;28;20048;-59
2022/09/10 11:30:40;;;;;;;0.98;0.60;;;;;;;19.81;59.65;96626.28;10562617;28;20047;-65
2022/09/10 11:36:24;;;;;;;0.65;0.60;;;;;;;19.78;58.76;96618.03;10538505;28;20043;-60
2022/09/10 11:41:46;;;;;;;0.90;0.60;;;;;;;19.79;58.93;96622.34;10558782;28;20078;-67
2022/09/10 11:47:13;;;;;;;0.88;0.70;;;;;;;19.78;58.68;96616.13;10574579;28;20040;-53
2022/09/10 11:52:34;;;;;;;2.35;0.73;;;;;;;19.76;58.53;96615.69;10540574;28;20405;-51
2022/09/10 11:57:59;;;;;;;2.22;0.95;;;;;;;19.74;58.52;96616.00;10546517;28;20052;-51
2022/09/10 12:03:25;;;;;;;1.35;0.60;;;;;;;19.75;58.59;96605.97;10537711;28;20048;-52
2022/09/10 12:09:05;;;;;;;1.60;0.70;;;;;;;19.73;58.11;96597.41;10554104;28;20448;-50
2022/09/10 12:14:24;;;;;;;1.00;0.60;;;;;;;19.73;58.13;96597.41;10554912;28;20047;-52
2022/09/10 12:19:50;;;;;;;0.77;0.57;;;;;;;19.72;58.30;96587.72;10544573;28;20059;-53
2022/09/10 12:25:15;;;;;;;7.10;0.77;;;;;;;19.72;58.37;96591.22;10543815;28;20055;-51
2022/09/10 12:30:34;;;;;;;1.83;0.60;;;;;;;19.73;58.37;96589.31;10534859;28;20411;-51
2022/09/10 12:35:54;;;;;;;1.88;0.60;;;;;;;19.74;58.67;96583.56;10535593;28;20044;-51
2022/09/10 12:41:22;;;;;;;1.05;0.70;;;;;;;19.73;58.84;96584.69;10537565;28;20065;-51
2022/09/10 12:46:42;;;;;;;0.70;0.55;;;;;;;19.74;58.53;96580.88;10547548;28;20055;-51
2022/09/10 12:52:02;;;;;;;1.33;0.70;;;;;;;19.74;58.65;96578.16;10551955;28;20056;-49
2022/09/10 12:57:49;;;;;;;0.93;0.60;;;;;;;19.74;58.41;96577.38;10521704;28;20101;-50
2022/09/10 13:03:14;;;;;;;0.65;0.50;;;;;;;19.73;58.52;96575.78;10514053;28;20044;-52
2022/09/10 13:08:40;;;;;;;0.95;0.60;;;;;;;19.73;58.46;96576.56;10537817;28;20403;-52
2022/09/10 13:14:02;;;;;;;1.08;0.45;;;;;;;19.73;58.19;96581.19;10534933;28;20055;-51
2022/09/10 13:19:22;;;;;;;1.42;0.50;;;;;;;19.70;57.68;96588.03;10532590;28;20498;-51
2022/09/10 13:25:02;;;;;;;0.70;0.40;;;;;;;19.70;57.00;96573.72;10543188;28;20036;-52
2022/09/10 13:30:22;;;;;;;2.55;0.50;;;;;;;19.70;56.92;96577.22;10548744;28;20040;-52
2022/09/10 13:35:55;;;;;;;1.90;0.35;;;;;;;19.69;56.95;96572.13;10518719;28;20041;-51
2022/09/10 13:41:51;;;;;;;1.08;0.50;;;;;;;19.69;56.75;96569.44;10527994;28;20410;-51
2022/09/10 13:47:19;;;;;;;0.43;0.40;;;;;;;19.67;56.72;96563.56;10526136;28;20065;-50
2022/09/10 13:52:44;;;;;;;0.67;0.50;;;;;;;19.67;56.49;96566.28;10508646;28;20048;-51
2022/09/10 13:58:08;;;;;;;0.60;0.40;;;;;;;19.66;56.54;96562.78;10532505;28;20051;-51
2022/09/10 14:03:37;;;;;;;2.40;0.60;;;;;;;19.65;56.63;96577.41;10526720;28;20051;-52
2022/09/10 14:09:02;;;;;;;1.23;0.60;;;;;;;19.66;56.93;96580.88;10539959;28;20055;-51
2022/09/10 14:14:26;;;;;;;0.70;0.50;;;;;;;19.66;57.01;96581.69;10536010;28;20052;-50
2022/09/10 14:19:56;;;;;;;1.35;0.57;;;;;;;19.67;57.45;96582.47;10525859;28;20052;-49
2022/09/10 14:25:30;;;;;;;2.15;0.57;;;;;;;19.69;57.80;96591.06;10563260;28;20051;-52
2022/09/10 14:30:53;;;;;;;1.10;0.60;;;;;;;19.69;58.32;96580.25;10547442;28;20040;-52
2022/09/10 14:36:32;;;;;;;0.85;0.60;;;;;;;19.67;58.65;96560.88;10537205;28;20499;-52
2022/09/10 14:42:31;;;;;;;1.27;0.55;;;;;;;19.66;57.66;96572.78;10536366;28;20059;-51
2022/09/10 14:47:52;;;;;;;4.20;1.52;;;;;;;19.64;58.42;96567.72;10450640;28;20060;-51
2022/09/10 14:53:12;;;;;;;3.20;1.20;;;;;;;19.63;58.21;96566.13;10538162;28;20051;-52
2022/09/10 14:58:31;;;;;;;2.65;1.02;;;;;;;19.66;58.81;96570.06;10536938;28;20055;-52
2022/09/10 15:03:50;;;;;;;2.17;1.10;;;;;;;19.67;59.25;96560.88;10537865;28;20067;-50
2022/09/10 15:09:11;;;;;;;3.88;1.33;;;;;;;19.68;59.68;96574.06;10530562;28;20068;-52
2022/09/10 15:14:32;;;;;;;3.25;1.25;;;;;;;19.68;59.99;96584.06;10537574;28;20056;-52
2022/09/10 15:19:52;;;;;;;3.22;1.30;;;;;;;19.69;60.26;96591.84;10550924;28;20147;-52
2022/09/10 15:25:45;;;;;;;2.00;1.13;;;;;;;19.68;60.52;96589.47;10525671;28;20052;-51
2022/09/10 15:31:05;;;;;;;2.00;0.98;;;;;;;19.69;60.74;96575.63;10513161;28;20055;-53
2022/09/10 15:36:24;;;;;;;2.17;1.00;;;;;;;19.70;60.92;96579.91;10526209;28;20056;-50
2022/09/10 15:41:44;;;;;;;1.95;0.90;;;;;;;19.70;61.01;96584.53;10554636;28;20113;-51
2022/09/10 15:47:03;;;;;;;2.40;1.00;;;;;;;19.69;61.29;96582.94;10541163;28;20052;-52
2022/09/10 15:52:23;;;;;;;1.63;0.77;;;;;;;19.70;61.36;96587.25;10572053;28;20047;-52
2022/09/10 15:57:42;;;;;;;1.50;0.90;;;;;;;19.69;61.51;96574.84;10572051;28;20100;-53
2022/09/10 16:03:01;;;;;;;1.65;0.90;;;;;;;19.70;61.63;96571.03;10559287;28;20070;-52
2022/09/10 16:08:21;;;;;;;2.95;1.00;;;;;;;19.71;61.79;96583.41;10577075;28;20051;-51
2022/09/10 16:13:40;;;;;;;1.20;0.90;;;;;;;19.70;61.99;96587.25;10550151;28;20097;-51
2022/09/10 16:18:59;;;;;;;1.85;0.68;;;;;;;19.71;61.97;96586.91;10566807;28;20051;-48
2022/09/10 16:24:19;;;;;;;1.20;0.80;;;;;;;19.71;61.98;96583.41;10583262;28;20497;-52
2022/09/10 16:29:42;;;;;;;1.67;0.70;;;;;;;19.71;62.10;96578.81;10561790;28;20048;-50
2022/09/10 16:35:02;;;;;;;1.38;0.80;;;;;;;19.71;62.18;96578.00;10566224;28;20051;-51
2022/09/10 16:40:22;;;;;;;0.98;0.60;;;;;;;19.70;62.34;96577.22;10579299;28;20064;-52
2022/09/10 16:45:49;;;;;;;1.35;0.75;;;;;;;19.70;62.34;96588.03;10562931;28;20044;-53
2022/09/10 16:51:16;;;;;;;1.17;0.70;;;;;;;19.71;62.34;96575.28;10558531;28;20059;-52
2022/09/10 16:56:42;;;;;;;0.63;0.60;;;;;;;19.70;62.37;96579.13;10581921;28;20044;-53
2022/09/10 17:02:01;;;;;;;0.80;0.65;;;;;;;19.70;62.38;96592.66;10551553;28;20048;-53
2022/09/10 17:07:21;;;;;;;1.23;0.60;;;;;;;19.71;62.77;96588.81;10555928;28;20509;-53
2022/09/10 17:12:42;;;;;;;1.02;0.65;;;;;;;19.70;62.65;96590.72;10548317;28;20058;-52
2022/09/10 17:18:03;;;;;;;1.42;0.60;;;;;;;19.71;62.68;96594.22;10569272;28;20044;-53
2022/09/10 17:23:23;;;;;;;0.75;0.60;;;;;;;19.71;62.72;96594.22;10579611;28;20039;-54
2022/09/10 17:28:42;;;;;;;2.08;0.80;;;;;;;19.67;61.88;96591.38;10562852;28;20438;-52
2022/09/10 17:34:02;;;;;;;1.20;0.70;;;;;;;19.67;62.06;96585.97;10560418;28;20074;-52
2022/09/10 17:39:21;;;;;;;1.92;0.80;;;;;;;19.68;62.07;96584.88;10577199;28;20062;-53
2022/09/10 17:44:43;;;;;;;1.17;0.75;;;;;;;19.68;62.21;96589.47;10580095;28;20054;-52
2022/09/10 17:50:03;;;;;;;1.65;0.63;;;;;;;19.68;62.23;96590.28;10585300;28;20047;-53
2022/09/10 17:55:23;;;;;;;1.52;0.70;;;;;;;19.69;62.47;96601.88;10579842;28;20376;-53
2022/09/10 18:00:47;;;;;;;0.70;0.68;;;;;;;19.69;62.48;96605.34;10578704;28;20429;-53
2022/09/10 18:06:08;;;;;;;1.05;0.65;;;;;;;19.68;62.56;96605.66;10540460;28;20056;-53
2022/09/10 18:11:30;;;;;;;0.75;0.60;;;;;;;19.69;62.62;96615.38;10542966;28;20055;-53
2022/09/10 18:16:50;;;;;;;0.52;0.50;;;;;;;19.68;62.64;96620.00;10575470;28;20055;-51
2022/09/10 18:22:10;;;;;;;1.48;0.70;;;;;;;19.67;62.76;96631.13;10543430;28;20082;-53
2022/09/10 18:27:30;;;;;;;1.55;0.60;;;;;;;19.68;62.74;96632.69;10554552;28;20051;-52
2022/09/10 18:32:50;;;;;;;1.67;0.60;;;;;;;19.68;62.80;96636.22;10559406;28;20048;-51
2022/09/10 18:38:10;;;;;;;1.75;0.70;;;;;;;19.69;62.88;96628.88;10531435;28;20063;-53
2022/09/10 18:43:31;;;;;;;1.15;0.70;;;;;;;19.69;62.93;96631.59;10533963;28;20044;-52
2022/09/10 18:48:51;;;;;;;1.33;0.90;;;;;;;19.69;63.06;96629.66;10542863;28;20056;-53
2022/09/10 18:54:13;;;;;;;1.08;0.73;;;;;;;19.68;63.04;96633.50;10524862;28;20407;-52
2022/09/10 18:59:34;;;;;;;1.45;0.70;;;;;;;19.67;63.03;96621.09;10551422;28;20548;-52
2022/09/10 19:04:53;;;;;;;1.55;0.90;;;;;;;19.67;63.11;96626.50;10544417;28;20518;-53
2022/09/10 19:10:13;;;;;;;1.10;0.75;;;;;;;19.67;63.17;96633.84;10537870;28;20048;-51
2022/09/10 19:15:32;;;;;;;1.10;0.70;;;;;;;19.68;63.18;96635.41;10551694;28;20048;-52
2022/09/10 19:20:52;;;;;;;0.85;0.80;;;;;;;19.67;63.01;96642.72;10541846;28;20399;-53
2022/09/10 19:26:11;;;;;;;0.90;0.65;;;;;;;19.67;63.19;96636.53;10547601;28;20046;-52
2022/09/10 19:31:33;;;;;;;0.63;0.63;;;;;;;19.67;63.24;96636.53;10533993;28;20059;-53
2022/09/10 19:36:52;;;;;;;1.13;0.73;;;;;;;19.67;63.27;96637.31;10536594;28;20056;-52
2022/09/10 19:42:12;;;;;;;3.33;0.82;;;;;;;19.67;63.43;96634.63;10540033;28;20052;-53
2022/09/10 19:47:31;;;;;;;1.35;0.75;;;;;;;19.68;63.37;96630.81;10539537;28;20415;-52
2022/09/10 19:52:52;;;;;;;1.08;0.70;;;;;;;19.68;63.37;96632.69;10534014;28;20048;-53
2022/09/10 19:58:11;;;;;;;1.27;0.73;;;;;;;19.67;63.39;96636.53;10544908;28;20495;-53
2022/09/10 20:03:30;;;;;;;1.27;0.80;;;;;;;19.68;63.29;96638.09;10545600;28;20105;-53
2022/09/10 20:08:50;;;;;;;1.40;0.82;;;;;;;19.68;63.44;96638.09;10544087;28;20052;-53
2022/09/10 20:14:12;;;;;;;0.93;0.60;;;;;;;19.68;63.51;96648.91;10544255;28;20127;-53
2022/09/10 20:19:31;;;;;;;1.00;0.80;;;;;;;19.66;63.40;96638.44;10557962;28;20047;-52
2022/09/10 20:24:51;;;;;;;2.60;0.90;;;;;;;19.67;63.52;96639.22;10543631;28;20515;-53
2022/09/10 20:30:10;;;;;;;2.15;0.90;;;;;;;19.66;63.45;96634.94;10557372;28;20540;-54
2022/09/10 20:35:30;;;;;;;1.83;0.90;;;;;;;19.66;63.39;96633.03;10543995;28;20048;-53
2022/09/10 20:40:50;;;;;;;0.60;0.60;;;;;;;19.66;63.40;96635.75;10538920;28;20060;-52
2022/09/10 20:46:15;;;;;;;1.73;0.93;;;;;;;19.65;63.39;96626.03;10531142;28;20097;-53
2022/09/10 20:51:36;;;;;;;0.93;0.70;;;;;;;19.66;63.49;96624.13;10556608;28;20059;-53
2022/09/10 20:56:55;;;;;;;2.33;0.70;;;;;;;19.67;63.39;96623.03;10517961;28;20071;-52
2022/09/10 21:02:14;;;;;;;1.63;0.70;;;;;;;19.67;63.44;96620.31;10556198;28;20398;-53
2022/09/10 21:07:34;;;;;;;0.90;0.70;;;;;;;19.66;63.42;96627.66;10536568;28;20140;-52
2022/09/10 21:12:53;;;;;;;0.73;0.70;;;;;;;19.66;63.35;96626.84;10541873;28;20059;-53
2022/09/10 21:18:13;;;;;;;0.77;0.60;;;;;;;19.66;63.47;96630.34;10531082;28;20048;-53
2022/09/10 21:23:32;;;;;;;0.88;0.77;;;;;;;19.67;63.55;96631.91;10555432;28;20036;-53
2022/09/10 21:28:55;;;;;;;1.02;0.80;;;;;;;19.67;63.52;96637.31;10543493;28;20074;-52
2022/09/10 21:34:14;;;;;;;2.40;0.95;;;;;;;19.67;63.72;96634.63;10542297;28;20429;-52
2022/09/10 21:39:34;;;;;;;1.92;1.13;;;;;;;19.67;63.52;96633.84;10552872;28;20064;-53
2022/09/10 21:44:53;;;;;;;2.70;1.13;;;;;;;19.66;63.69;96645.75;10559296;28;20073;-52
2022/09/10 21:50:12;;;;;;;1.95;1.27;;;;;;;19.66;63.56;96641.16;10554450;28;20101;-52
2022/09/10 21:55:32;;;;;;;2.63;1.23;;;;;;;19.67;63.53;96644.63;10570505;28;20051;-53
2022/09/10 22:00:51;;;;;;;2.13;1.23;;;;;;;19.65;63.63;96644.97;10563648;28;20066;-52
2022/09/10 22:06:17;;;;;;;2.65;1.40;;;;;;;19.66;63.60;96640.34;10568928;28;20054;-53
2022/09/10 22:11:40;;;;;;;4.82;2.15;;;;;;;19.66;63.64;96638.44;10562506;28;20047;-53
2022/09/10 22:17:00;;;;;;;5.35;2.30;;;;;;;19.65;63.66;96636.06;10547897;28;20530;-53
2022/09/10 22:22:19;;;;;;;3.95;2.08;;;;;;;19.67;63.72;96636.53;10562575;28;20054;-54
2022/09/10 22:27:39;;;;;;;4.50;2.05;;;;;;;19.65;63.75;96644.97;10558737;28;20105;-53
2022/09/10 22:32:58;;;;;;;7.05;2.08;;;;;;;19.65;63.72;96647.66;10552614;28;20431;-52
2022/09/10 22:38:19;;;;;;;4.72;1.77;;;;;;;19.66;63.87;96643.03;10566892;28;20063;-53
2022/09/10 22:43:39;;;;;;;2.88;1.65;;;;;;;19.66;63.69;96651.16;10575847;28;20051;-54
2022/09/10 22:48:58;;;;;;;6.53;1.88;;;;;;;19.66;63.84;96651.16;10532384;28;20052;-52
2022/09/10 22:54:19;;;;;;;4.40;1.80;;;;;;;19.65;63.90;96641.47;10568511;28;20135;-53
2022/09/10 22:59:39;;;;;;;2.83;1.40;;;;;;;19.64;63.88;96638.00;10577445;28;20052;-53
2022/09/10 23:04:58;;;;;;;3.55;1.70;;;;;;;19.65;64.00;96644.97;10579666;28;20040;-52
2022/09/10 23:10:19;;;;;;;3.67;2.20;;;;;;;19.65;63.94;96646.88;10571378;28;20047;-53
2022/09/10 23:15:39;;;;;;;3.58;1.67;;;;;;;19.64;64.05;96646.09;10553111;28;20051;-53
2022/09/10 23:21:02;;;;;;;3.30;1.60;;;;;;;19.65;64.16;96644.19;10568924;28;20411;-53
2022/09/10 23:26:22;;;;;;;3.28;1.30;;;;;;;19.66;64.10;96648.44;10564457;28;20046;-53
2022/09/10 23:31:42;;;;;;;2.20;1.30;;;;;;;19.64;64.09;96635.28;10571240;28;20055;-53
2022/09/10 23:37:01;;;;;;;2.88;1.60;;;;;;;19.65;64.29;96631.44;10548787;28;20055;-52
2022/09/10 23:42:21;;;;;;;2.97;1.48;;;;;;;19.65;64.25;96644.19;10536728;28;20118;-52
2022/09/10 23:47:40;;;;;;;1.90;1.30;;;;;;;19.65;64.27;96638.78;10534903;28;20055;-53
2022/09/10 23:52:59;;;;;;;2.80;1.40;;;;;;;19.64;64.28;96639.88;10537390;28;20094;-53
2022/09/10 23:58:20;;;;;;;2.47;1.25;;;;;;;19.65;64.26;96636.06;10559995;28;20046;-53
